sensor_id;sensor_type;location;lat;lon;timestamp;pressure;altitude;pressure_sealevel;temperature;humidity
71795;BME280;59641;45.188;5.712;2022-12-29T00:01:52;99682.03;;;9.62;62.14
71795;BME280;59641;45.188;5.712;2022-12-29T00:04:18;99681.41;;;9.60;62.45
71795;BME280;59641;45.188;5.712;2022-12-29T00:06:43;99690.28;;;9.60;62.67
71795;BME280;59641;45.188;5.712;2022-12-29T00:09:11;99683.88;;;9.62;62.54
71795;BME280;59641;45.188;5.712;2022-12-29T00:11:37;99686.34;;;9.63;62.58
71795;BME280;59641;45.188;5.712;2022-12-29T00:14:02;99668.41;;;9.64;62.36
71795;BME280;59641;45.188;5.712;2022-12-29T00:16:46;99680.81;;;9.65;62.28
71795;BME280;59641;45.188;5.712;2022-12-29T00:19:12;99665.97;;;9.62;62.43
71795;BME280;59641;45.188;5.712;2022-12-29T00:21:57;99671.31;;;9.62;62.55
71795;BME280;59641;45.188;5.712;2022-12-29T00:24:42;99672.34;;;9.61;62.56
71795;BME280;59641;45.188;5.712;2022-12-29T00:27:28;99661.63;;;9.61;62.66
71795;BME280;59641;45.188;5.712;2022-12-29T00:30:19;99657.94;;;9.62;62.45
71795;BME280;59641;45.188;5.712;2022-12-29T00:33:28;99659.13;;;9.59;62.36
71795;BME280;59641;45.188;5.712;2022-12-29T00:36:31;99655.88;;;9.57;62.06
71795;BME280;59641;45.188;5.712;2022-12-29T00:39:08;99648.84;;;9.56;62.41
71795;BME280;59641;45.188;5.712;2022-12-29T00:41:53;99648.03;;;9.56;62.29
71795;BME280;59641;45.188;5.712;2022-12-29T00:44:37;99649.88;;;9.55;62.13
71795;BME280;59641;45.188;5.712;2022-12-29T00:47:02;99655.25;;;9.55;62.36
71795;BME280;59641;45.188;5.712;2022-12-29T00:49:29;99647.22;;;9.55;62.22
71795;BME280;59641;45.188;5.712;2022-12-29T00:52:09;99653.19;;;9.57;62.23
71795;BME280;59641;45.188;5.712;2022-12-29T00:54:37;99663.91;;;9.57;62.06
71795;BME280;59641;45.188;5.712;2022-12-29T00:57:04;99643.47;;;9.56;62.01
71795;BME280;59641;45.188;5.712;2022-12-29T00:59:30;99642.22;;;9.52;61.99
71795;BME280;59641;45.188;5.712;2022-12-29T01:01:56;99646.16;;;9.50;61.96
71795;BME280;59641;45.188;5.712;2022-12-29T01:04:23;99633.81;;;9.49;62.08
71795;BME280;59641;45.188;5.712;2022-12-29T01:06:49;99645.34;;;9.49;62.06
71795;BME280;59641;45.188;5.712;2022-12-29T01:09:16;99636.91;;;9.46;61.80
71795;BME280;59641;45.188;5.712;2022-12-29T01:12:01;99654.00;;;9.38;61.85
71795;BME280;59641;45.188;5.712;2022-12-29T01:14:27;99646.34;;;9.35;61.93
71795;BME280;59641;45.188;5.712;2022-12-29T01:16:52;99643.91;;;9.33;62.16
71795;BME280;59641;45.188;5.712;2022-12-29T01:19:18;99641.22;;;9.33;62.07
71795;BME280;59641;45.188;5.712;2022-12-29T01:21:44;99641.22;;;9.33;62.11
71795;BME280;59641;45.188;5.712;2022-12-29T01:24:10;99642.47;;;9.31;62.09
71795;BME280;59641;45.188;5.712;2022-12-29T01:26:35;99638.94;;;9.30;62.27
71795;BME280;59641;45.188;5.712;2022-12-29T01:29:01;99643.28;;;9.31;62.33
71795;BME280;59641;45.188;5.712;2022-12-29T01:31:26;99647.59;;;9.32;62.19
71795;BME280;59641;45.188;5.712;2022-12-29T01:33:51;99639.38;;;9.34;62.11
71795;BME280;59641;45.188;5.712;2022-12-29T01:36:18;99635.44;;;9.30;61.99
71795;BME280;59641;45.188;5.712;2022-12-29T01:38:43;99630.50;;;9.27;61.86
71795;BME280;59641;45.188;5.712;2022-12-29T01:41:12;99635.84;;;9.20;61.79
71795;BME280;59641;45.188;5.712;2022-12-29T01:43:47;99643.84;;;9.13;61.96
71795;BME280;59641;45.188;5.712;2022-12-29T01:46:32;99646.94;;;9.10;61.98
71795;BME280;59641;45.188;5.712;2022-12-29T01:49:10;99656.41;;;9.06;62.03
71795;BME280;59641;45.188;5.712;2022-12-29T01:52:04;99648.97;;;9.02;62.19
71795;BME280;59641;45.188;5.712;2022-12-29T01:54:36;99650.84;;;9.01;62.40
71795;BME280;59641;45.188;5.712;2022-12-29T01:57:06;99662.16;;;9.03;62.34
71795;BME280;59641;45.188;5.712;2022-12-29T01:59:40;99659.50;;;9.03;62.39
71795;BME280;59641;45.188;5.712;2022-12-29T02:02:08;99660.31;;;9.04;62.41
71795;BME280;59641;45.188;5.712;2022-12-29T02:04:34;99661.13;;;9.04;62.34
71795;BME280;59641;45.188;5.712;2022-12-29T02:07:07;99673.69;;;9.04;62.22
71795;BME280;59641;45.188;5.712;2022-12-29T02:09:35;99662.16;;;9.03;62.16
71795;BME280;59641;45.188;5.712;2022-12-29T02:12:00;99662.81;;;9.05;62.39
71795;BME280;59641;45.188;5.712;2022-12-29T02:14:26;99654.97;;;9.04;62.43
71795;BME280;59641;45.188;5.712;2022-12-29T02:28:37;99642.84;;;9.14;62.34
71795;BME280;59641;45.188;5.712;2022-12-29T02:31:29;99645.09;;;9.17;62.37
71795;BME280;59641;45.188;5.712;2022-12-29T02:39:01;99628.63;;;9.21;62.26
71795;BME280;59641;45.188;5.712;2022-12-29T02:47:35;99607.63;;;9.24;62.00
71795;BME280;59641;45.188;5.712;2022-12-29T02:50:16;99617.13;;;9.27;61.96
71795;BME280;59641;45.188;5.712;2022-12-29T02:52:49;99609.06;;;9.27;61.95
71795;BME280;59641;45.188;5.712;2022-12-29T02:55:16;99610.53;;;9.29;61.75
71795;BME280;59641;45.188;5.712;2022-12-29T02:57:41;99607.03;;;9.29;61.64
71795;BME280;59641;45.188;5.712;2022-12-29T03:00:10;99599.78;;;9.23;61.36
71795;BME280;59641;45.188;5.712;2022-12-29T03:05:34;99596.28;;;9.15;61.48
71795;BME280;59641;45.188;5.712;2022-12-29T03:08:21;99591.16;;;9.14;61.31
71795;BME280;59641;45.188;5.712;2022-12-29T03:11:02;99602.06;;;9.12;61.42
71795;BME280;59641;45.188;5.712;2022-12-29T03:13:49;99594.84;;;9.13;61.44
71795;BME280;59641;45.188;5.712;2022-12-29T03:16:44;99601.03;;;9.13;61.31
71795;BME280;59641;45.188;5.712;2022-12-29T03:19:19;99592.38;;;9.11;61.34
71795;BME280;59641;45.188;5.712;2022-12-29T03:24:43;99585.78;;;9.07;61.48
71795;BME280;59641;45.188;5.712;2022-12-29T03:27:14;99580.63;;;9.06;61.28
71795;BME280;59641;45.188;5.712;2022-12-29T03:29:52;99574.28;;;9.07;61.44
71795;BME280;59641;45.188;5.712;2022-12-29T03:32:21;99575.09;;;9.07;61.56
71795;BME280;59641;45.188;5.712;2022-12-29T03:34:49;99580.44;;;9.07;61.41
71795;BME280;59641;45.188;5.712;2022-12-29T03:37:21;99578.59;;;9.08;61.48
71795;BME280;59641;45.188;5.712;2022-12-29T03:39:48;99580.03;;;9.10;61.51
71795;BME280;59641;45.188;5.712;2022-12-29T03:42:19;99589.31;;;9.14;61.50
71795;BME280;59641;45.188;5.712;2022-12-29T03:44:46;99596.09;;;9.17;61.50
71795;BME280;59641;45.188;5.712;2022-12-29T03:47:13;99584.16;;;9.20;61.25
71795;BME280;59641;45.188;5.712;2022-12-29T03:49:39;99587.66;;;9.20;61.17
71795;BME280;59641;45.188;5.712;2022-12-29T03:52:05;99584.78;;;9.22;61.23
71795;BME280;59641;45.188;5.712;2022-12-29T03:54:30;99590.13;;;9.22;61.18
71795;BME280;59641;45.188;5.712;2022-12-29T03:56:56;99596.31;;;9.22;61.20
71795;BME280;59641;45.188;5.712;2022-12-29T03:59:21;99595.25;;;9.23;61.18
71795;BME280;59641;45.188;5.712;2022-12-29T04:01:47;99600.63;;;9.23;60.73
71795;BME280;59641;45.188;5.712;2022-12-29T04:04:12;99599.78;;;9.23;60.85
71795;BME280;59641;45.188;5.712;2022-12-29T04:06:38;99604.34;;;9.22;60.51
71795;BME280;59641;45.188;5.712;2022-12-29T04:09:04;99613.19;;;9.23;60.25
71795;BME280;59641;45.188;5.712;2022-12-29T04:11:29;99625.75;;;9.22;60.56
71795;BME280;59641;45.188;5.712;2022-12-29T04:13:54;99633.78;;;9.22;60.66
71795;BME280;59641;45.188;5.712;2022-12-29T04:16:20;99616.69;;;9.23;60.60
71795;BME280;59641;45.188;5.712;2022-12-29T04:18:45;99603.28;;;9.23;60.42
71795;BME280;59641;45.188;5.712;2022-12-29T04:21:10;99614.41;;;9.20;60.42
71795;BME280;59641;45.188;5.712;2022-12-29T04:23:37;99614.41;;;9.20;60.27
71795;BME280;59641;45.188;5.712;2022-12-29T04:26:04;99617.91;;;9.21;60.41
71795;BME280;59641;45.188;5.712;2022-12-29T04:28:31;99626.75;;;9.21;60.47
71795;BME280;59641;45.188;5.712;2022-12-29T04:30:56;99618.34;;;9.24;60.70
71795;BME280;59641;45.188;5.712;2022-12-29T04:33:22;99614.44;;;9.27;60.59
71795;BME280;59641;45.188;5.712;2022-12-29T04:35:47;99611.53;;;9.28;60.52
71795;BME280;59641;45.188;5.712;2022-12-29T04:38:13;99613.81;;;9.31;60.52
71795;BME280;59641;45.188;5.712;2022-12-29T04:40:41;99613.59;;;9.33;60.35
71795;BME280;59641;45.188;5.712;2022-12-29T04:43:07;99613.59;;;9.33;60.19
71795;BME280;59641;45.188;5.712;2022-12-29T04:45:32;99615.47;;;9.32;60.32
71795;BME280;59641;45.188;5.712;2022-12-29T04:47:57;99629.66;;;9.33;60.15
71795;BME280;59641;45.188;5.712;2022-12-29T04:50:23;99626.16;;;9.32;60.22
71795;BME280;59641;45.188;5.712;2022-12-29T04:52:48;99624.72;;;9.30;60.13
71795;BME280;59641;45.188;5.712;2022-12-29T04:55:14;99623.28;;;9.27;60.09
71795;BME280;59641;45.188;5.712;2022-12-29T04:57:39;99618.13;;;9.26;60.30
71795;BME280;59641;45.188;5.712;2022-12-29T05:00:05;99614.00;;;9.23;60.31
71795;BME280;59641;45.188;5.712;2022-12-29T05:02:30;99613.38;;;9.21;60.33
71795;BME280;59641;45.188;5.712;2022-12-29T05:04:56;99615.66;;;9.17;60.33
71795;BME280;59641;45.188;5.712;2022-12-29T05:07:21;99616.69;;;9.16;60.54
71795;BME280;59641;45.188;5.712;2022-12-29T05:09:47;99620.38;;;9.15;60.36
71795;BME280;59641;45.188;5.712;2022-12-29T05:12:12;99615.84;;;9.16;60.75
71795;BME280;59641;45.188;5.712;2022-12-29T05:14:37;99618.53;;;9.16;60.67
71795;BME280;59641;45.188;5.712;2022-12-29T05:17:03;99619.97;;;9.18;60.62
71795;BME280;59641;45.188;5.712;2022-12-29T05:19:28;99610.13;;;9.19;60.48
71795;BME280;59641;45.188;5.712;2022-12-29T05:21:53;99612.56;;;9.21;60.64
71795;BME280;59641;45.188;5.712;2022-12-29T05:24:19;99617.91;;;9.21;60.78
71795;BME280;59641;45.188;5.712;2022-12-29T05:26:45;99629.88;;;9.25;60.86
71795;BME280;59641;45.188;5.712;2022-12-29T05:29:10;99618.13;;;9.26;61.02
71795;BME280;59641;45.188;5.712;2022-12-29T05:31:35;99611.34;;;9.30;60.89
71795;BME280;59641;45.188;5.712;2022-12-29T05:34:01;99608.66;;;9.30;60.62
71795;BME280;59641;45.188;5.712;2022-12-29T05:36:27;99606.81;;;9.30;60.65
71795;BME280;59641;45.188;5.712;2022-12-29T05:38:52;99605.97;;;9.30;60.65
71795;BME280;59641;45.188;5.712;2022-12-29T05:41:18;99618.13;;;9.32;60.72
71795;BME280;59641;45.188;5.712;2022-12-29T05:43:43;99619.81;;;9.33;60.76
71795;BME280;59641;45.188;5.712;2022-12-29T05:46:08;99614.22;;;9.35;60.85
71795;BME280;59641;45.188;5.712;2022-12-29T05:48:34;99605.16;;;9.36;60.74
71795;BME280;59641;45.188;5.712;2022-12-29T05:50:59;99590.94;;;9.35;60.54
71795;BME280;59641;45.188;5.712;2022-12-29T05:53:24;99580.44;;;9.34;60.50
71795;BME280;59641;45.188;5.712;2022-12-29T05:55:50;99588.91;;;9.31;60.57
71795;BME280;59641;45.188;5.712;2022-12-29T05:58:16;99599.00;;;9.29;60.68
71795;BME280;59641;45.188;5.712;2022-12-29T06:00:41;99597.31;;;9.28;60.45
71795;BME280;59641;45.188;5.712;2022-12-29T06:03:07;99608.84;;;9.28;60.62
71795;BME280;59641;45.188;5.712;2022-12-29T06:05:32;99601.03;;;9.27;60.49
71795;BME280;59641;45.188;5.712;2022-12-29T06:07:58;99600.22;;;9.26;60.49
71795;BME280;59641;45.188;5.712;2022-12-29T06:10:23;99602.91;;;9.26;60.50
71795;BME280;59641;45.188;5.712;2022-12-29T06:12:48;99603.09;;;9.25;60.47
71795;BME280;59641;45.188;5.712;2022-12-29T06:15:14;99611.31;;;9.23;60.57
71795;BME280;59641;45.188;5.712;2022-12-29T06:17:40;99604.34;;;9.22;60.80
71795;BME280;59641;45.188;5.712;2022-12-29T06:20:06;99603.09;;;9.25;60.67
71795;BME280;59641;45.188;5.712;2022-12-29T06:22:32;99607.22;;;9.21;60.62
71795;BME280;59641;45.188;5.712;2022-12-29T06:24:57;99607.22;;;9.21;60.95
71795;BME280;59641;45.188;5.712;2022-12-29T06:27:23;99604.53;;;9.21;60.87
71795;BME280;59641;45.188;5.712;2022-12-29T06:29:48;99608.88;;;9.22;60.89
71795;BME280;59641;45.188;5.712;2022-12-29T06:32:15;99619.16;;;9.25;60.99
71795;BME280;59641;45.188;5.712;2022-12-29T06:34:40;99625.34;;;9.25;60.96
71795;BME280;59641;45.188;5.712;2022-12-29T06:37:06;99626.59;;;9.29;60.76
71795;BME280;59641;45.188;5.712;2022-12-29T06:39:31;99618.94;;;9.33;60.88
71795;BME280;59641;45.188;5.712;2022-12-29T06:41:57;99626.38;;;9.37;60.47
71795;BME280;59641;45.188;5.712;2022-12-29T06:44:22;99632.16;;;9.41;60.33
71795;BME280;59641;45.188;5.712;2022-12-29T06:46:49;99626.38;;;9.44;60.60
71795;BME280;59641;45.188;5.712;2022-12-29T06:49:14;99627.63;;;9.48;60.51
71795;BME280;59641;45.188;5.712;2022-12-29T06:51:39;99620.59;;;9.47;60.10
71795;BME280;59641;45.188;5.712;2022-12-29T06:54:05;99617.09;;;9.47;59.86
71795;BME280;59641;45.188;5.712;2022-12-29T06:56:31;99633.00;;;9.48;59.88
71795;BME280;59641;45.188;5.712;2022-12-29T06:58:56;99627.22;;;9.51;59.96
71795;BME280;59641;45.188;5.712;2022-12-29T07:01:21;99631.31;;;9.54;59.67
71795;BME280;59641;45.188;5.712;2022-12-29T07:03:47;99638.53;;;9.53;59.43
71795;BME280;59641;45.188;5.712;2022-12-29T07:06:12;99635.03;;;9.53;58.90
71795;BME280;59641;45.188;5.712;2022-12-29T07:08:38;99635.25;;;9.51;58.53
71795;BME280;59641;45.188;5.712;2022-12-29T07:11:04;99624.72;;;9.50;59.09
71795;BME280;59641;45.188;5.712;2022-12-29T07:13:29;99630.94;;;9.50;59.00
71795;BME280;59641;45.188;5.712;2022-12-29T07:15:55;99632.75;;;9.50;59.25
71795;BME280;59641;45.188;5.712;2022-12-29T07:18:20;99636.88;;;9.52;59.29
71795;BME280;59641;45.188;5.712;2022-12-29T07:20:45;99650.28;;;9.52;59.36
71795;BME280;59641;45.188;5.712;2022-12-29T07:23:11;99643.91;;;9.53;59.30
71795;BME280;59641;45.188;5.712;2022-12-29T07:25:36;99644.91;;;9.52;58.57
71795;BME280;59641;45.188;5.712;2022-12-29T07:28:03;99636.47;;;9.49;58.98
71795;BME280;59641;45.188;5.712;2022-12-29T07:30:28;99631.31;;;9.47;58.75
71795;BME280;59641;45.188;5.712;2022-12-29T07:32:54;99634.22;;;9.46;58.82
71795;BME280;59641;45.188;5.712;2022-12-29T07:35:19;99647.63;;;9.46;58.86
71795;BME280;59641;45.188;5.712;2022-12-29T07:37:44;99648.22;;;9.41;58.71
71795;BME280;59641;45.188;5.712;2022-12-29T07:40:11;99651.91;;;9.40;58.91
71795;BME280;59641;45.188;5.712;2022-12-29T07:42:36;99652.53;;;9.42;59.09
71795;BME280;59641;45.188;5.712;2022-12-29T07:45:01;99655.66;;;9.46;58.83
71795;BME280;59641;45.188;5.712;2022-12-29T07:47:27;99647.63;;;9.46;58.63
71795;BME280;59641;45.188;5.712;2022-12-29T07:49:53;99644.94;;;9.46;58.25
71795;BME280;59641;45.188;5.712;2022-12-29T07:52:18;99645.13;;;9.44;58.12
71795;BME280;59641;45.188;5.712;2022-12-29T07:54:43;99637.28;;;9.43;58.26
71795;BME280;59641;45.188;5.712;2022-12-29T07:57:09;99633.78;;;9.42;58.31
71795;BME280;59641;45.188;5.712;2022-12-29T07:59:34;99629.25;;;9.43;58.21
71795;BME280;59641;45.188;5.712;2022-12-29T08:02:00;99626.56;;;9.43;58.22
71795;BME280;59641;45.188;5.712;2022-12-29T08:04:25;99633.59;;;9.44;58.19
71795;BME280;59641;45.188;5.712;2022-12-29T08:06:51;99630.69;;;9.45;58.52
71795;BME280;59641;45.188;5.712;2022-12-29T08:09:16;99629.25;;;9.49;58.35
71795;BME280;59641;45.188;5.712;2022-12-29T08:11:42;99622.66;;;9.52;58.17
71795;BME280;59641;45.188;5.712;2022-12-29T08:14:08;99616.91;;;9.55;58.29
71795;BME280;59641;45.188;5.712;2022-12-29T08:16:33;99617.72;;;9.55;56.60
71795;BME280;59641;45.188;5.712;2022-12-29T08:18:59;99620.41;;;9.55;57.19
71795;BME280;59641;45.188;5.712;2022-12-29T08:21:26;99613.81;;;9.58;57.56
71795;BME280;59641;45.188;5.712;2022-12-29T08:23:51;99609.69;;;9.62;57.91
71795;BME280;59641;45.188;5.712;2022-12-29T08:26:17;99602.88;;;9.66;57.48
71795;BME280;59641;45.188;5.712;2022-12-29T08:28:42;99609.06;;;9.67;57.29
71795;BME280;59641;45.188;5.712;2022-12-29T08:31:07;99606.78;;;9.70;57.77
71795;BME280;59641;45.188;5.712;2022-12-29T08:33:33;99607.00;;;9.75;57.34
71795;BME280;59641;45.188;5.712;2022-12-29T08:36:03;99601.81;;;9.80;57.63
71795;BME280;59641;45.188;5.712;2022-12-29T08:38:29;99604.69;;;9.86;57.73
71795;BME280;59641;45.188;5.712;2022-12-29T08:40:56;99595.22;;;9.90;57.43
71795;BME280;59641;45.188;5.712;2022-12-29T08:43:22;99597.69;;;9.91;56.86
71795;BME280;59641;45.188;5.712;2022-12-29T08:45:47;99594.59;;;9.94;56.84
71795;BME280;59641;45.188;5.712;2022-12-29T08:48:13;99597.47;;;9.99;57.07
71795;BME280;59641;45.188;5.712;2022-12-29T08:50:38;99601.78;;;10.00;56.89
71795;BME280;59641;45.188;5.712;2022-12-29T08:53:04;99601.38;;;10.03;56.54
71795;BME280;59641;45.188;5.712;2022-12-29T08:55:29;99597.44;;;10.06;56.19
71795;BME280;59641;45.188;5.712;2022-12-29T08:57:54;99594.16;;;10.04;56.51
71795;BME280;59641;45.188;5.712;2022-12-29T09:00:20;99595.78;;;10.05;56.30
71795;BME280;59641;45.188;5.712;2022-12-29T09:02:46;99593.94;;;10.06;56.17
71795;BME280;59641;45.188;5.712;2022-12-29T09:05:11;99596.63;;;10.06;56.14
71795;BME280;59641;45.188;5.712;2022-12-29T09:07:37;99589.16;;;10.08;56.00
71795;BME280;59641;45.188;5.712;2022-12-29T09:10:03;99581.97;;;10.08;55.79
71795;BME280;59641;45.188;5.712;2022-12-29T09:12:30;99586.50;;;10.08;55.21
71795;BME280;59641;45.188;5.712;2022-12-29T09:14:55;99581.97;;;10.08;55.50
71795;BME280;59641;45.188;5.712;2022-12-29T09:17:21;99573.09;;;10.08;55.26
71795;BME280;59641;45.188;5.712;2022-12-29T09:20:05;99592.47;;;10.10;55.43
71795;BME280;59641;45.188;5.712;2022-12-29T09:22:30;99578.88;;;10.11;55.18
71795;BME280;59641;45.188;5.712;2022-12-29T09:24:56;99582.16;;;10.13;55.25
71795;BME280;59641;45.188;5.712;2022-12-29T09:27:21;99580.28;;;10.14;55.03
71795;BME280;59641;45.188;5.712;2022-12-29T09:29:46;99590.19;;;10.13;55.02
71795;BME280;59641;45.188;5.712;2022-12-29T09:32:12;99591.22;;;10.12;54.78
71795;BME280;59641;45.188;5.712;2022-12-29T09:34:37;99589.59;;;10.11;53.96
71795;BME280;59641;45.188;5.712;2022-12-29T09:37:03;99593.50;;;10.09;54.99
71795;BME280;59641;45.188;5.712;2022-12-29T09:39:28;99580.94;;;10.09;54.85
71795;BME280;59641;45.188;5.712;2022-12-29T09:41:59;99583.00;;;10.07;54.70
71795;BME280;59641;45.188;5.712;2022-12-29T09:47:19;99567.09;;;10.12;54.86
71795;BME280;59641;45.188;5.712;2022-12-29T09:52:28;99580.28;;;10.20;55.43
71795;BME280;59641;45.188;5.712;2022-12-29T09:55:09;99577.16;;;10.23;55.00
71795;BME280;59641;45.188;5.712;2022-12-29T09:57:49;99575.72;;;10.28;55.23
71795;BME280;59641;45.188;5.712;2022-12-29T10:00:23;99572.44;;;10.32;55.25
71795;BME280;59641;45.188;5.712;2022-12-29T10:02:59;99572.00;;;10.35;55.54
71795;BME280;59641;45.188;5.712;2022-12-29T10:08:33;99565.13;;;10.46;55.64
71795;BME280;59641;45.188;5.712;2022-12-29T10:14:15;99554.97;;;10.55;55.68
71795;BME280;59641;45.188;5.712;2022-12-29T10:25:16;99528.72;;;10.63;55.39
71795;BME280;59641;45.188;5.712;2022-12-29T10:27:43;99527.47;;;10.66;55.28
71795;BME280;59641;45.188;5.712;2022-12-29T10:30:13;99521.66;;;10.69;55.44
71795;BME280;59641;45.188;5.712;2022-12-29T10:32:54;99513.16;;;10.72;55.13
71795;BME280;59641;45.188;5.712;2022-12-29T10:35:23;99513.56;;;10.76;54.89
71795;BME280;59641;45.188;5.712;2022-12-29T10:43:12;99482.66;;;10.66;53.83
71795;BME280;59641;45.188;5.712;2022-12-29T10:45:41;99498.34;;;10.63;54.14
71795;BME280;59641;45.188;5.712;2022-12-29T10:48:14;99493.59;;;10.65;54.46
71795;BME280;59641;45.188;5.712;2022-12-29T10:50:44;99483.44;;;10.74;53.14
71795;BME280;59641;45.188;5.712;2022-12-29T10:53:22;99484.47;;;10.73;54.05
71795;BME280;59641;45.188;5.712;2022-12-29T10:55:49;99474.94;;;10.77;54.06
71795;BME280;59641;45.188;5.712;2022-12-29T10:58:15;99466.63;;;10.85;54.41
71795;BME280;59641;45.188;5.712;2022-12-29T11:00:42;99446.72;;;10.93;54.42
71795;BME280;59641;45.188;5.712;2022-12-29T11:06:00;99439.16;;;11.08;53.67
71795;BME280;59641;45.188;5.712;2022-12-29T11:08:33;99444.31;;;11.09;53.68
71795;BME280;59641;45.188;5.712;2022-12-29T11:11:07;99442.00;;;11.13;53.88
71795;BME280;59641;45.188;5.712;2022-12-29T11:13:35;99439.44;;;11.18;54.01
71795;BME280;59641;45.188;5.712;2022-12-29T11:16:12;99435.06;;;11.24;54.05
71795;BME280;59641;45.188;5.712;2022-12-29T11:18:38;99430.66;;;11.29;53.85
71795;BME280;59641;45.188;5.712;2022-12-29T11:21:10;99418.00;;;11.37;53.95
71795;BME280;59641;45.188;5.712;2022-12-29T11:23:59;99404.94;;;11.40;53.94
71795;BME280;59641;45.188;5.712;2022-12-29T11:26:26;99403.44;;;11.44;54.09
71795;BME280;59641;45.188;5.712;2022-12-29T11:31:46;99402.09;;;11.54;54.13
71795;BME280;59641;45.188;5.712;2022-12-29T11:34:19;99401.19;;;11.60;54.13
71795;BME280;59641;45.188;5.712;2022-12-29T11:36:46;99393.03;;;11.66;54.24
71795;BME280;59641;45.188;5.712;2022-12-29T11:42:18;99386.69;;;11.79;54.28
71795;BME280;59641;45.188;5.712;2022-12-29T11:44:48;99394.06;;;11.84;54.54
71795;BME280;59641;45.188;5.712;2022-12-29T11:47:28;99384.88;;;11.91;54.44
71795;BME280;59641;45.188;5.712;2022-12-29T11:49:57;99386.09;;;11.96;54.28
71795;BME280;59641;45.188;5.712;2022-12-29T11:52:26;99388.44;;;12.04;54.49
71795;BME280;59641;45.188;5.712;2022-12-29T11:54:54;99393.47;;;12.12;54.46
71795;BME280;59641;45.188;5.712;2022-12-29T11:57:22;99386.59;;;12.16;54.49
71795;BME280;59641;45.188;5.712;2022-12-29T12:02:41;99372.00;;;12.24;54.20
71795;BME280;59641;45.188;5.712;2022-12-29T12:05:15;99361.84;;;12.26;54.21
71795;BME280;59641;45.188;5.712;2022-12-29T12:07:50;99353.28;;;12.29;54.35
71795;BME280;59641;45.188;5.712;2022-12-29T12:10:22;99351.78;;;12.33;54.19
71795;BME280;59641;45.188;5.712;2022-12-29T12:15:48;99341.97;;;12.39;53.95
71795;BME280;59641;45.188;5.712;2022-12-29T12:18:32;99340.69;;;12.41;53.99
71795;BME280;59641;45.188;5.712;2022-12-29T12:23:56;99333.91;;;12.50;53.98
71795;BME280;59641;45.188;5.712;2022-12-29T12:26:35;99328.88;;;12.54;54.15
71795;BME280;59641;45.188;5.712;2022-12-29T12:29:25;99329.22;;;12.57;54.02
71795;BME280;59641;45.188;5.712;2022-12-29T12:34:39;99329.94;;;12.65;54.38
71795;BME280;59641;45.188;5.712;2022-12-29T12:40:55;99322.31;;;12.73;54.75
71795;BME280;59641;45.188;5.712;2022-12-29T12:49:11;99286.84;;;12.88;55.39
71795;BME280;59641;45.188;5.712;2022-12-29T13:00:22;99270.16;;;13.03;55.72
71795;BME280;59641;45.188;5.712;2022-12-29T13:10:50;99276.81;;;13.12;54.29
71795;BME280;59641;45.188;5.712;2022-12-29T13:13:33;99264.53;;;13.16;54.06
71795;BME280;59641;45.188;5.712;2022-12-29T13:24:28;99262.63;;;13.29;54.04
71795;BME280;59641;45.188;5.712;2022-12-29T13:27:10;99254.88;;;13.32;53.99
71795;BME280;59641;45.188;5.712;2022-12-29T13:29:50;99253.84;;;13.33;53.75
71795;BME280;59641;45.188;5.712;2022-12-29T13:35:25;99258.00;;;13.41;53.88
71795;BME280;59641;45.188;5.712;2022-12-29T13:38:01;99245.34;;;13.41;54.24
71795;BME280;59641;45.188;5.712;2022-12-29T13:40:33;99249.69;;;13.42;54.12
71795;BME280;59641;45.188;5.712;2022-12-29T13:42:59;99245.13;;;13.43;54.04
71795;BME280;59641;45.188;5.712;2022-12-29T13:45:29;99243.81;;;13.46;53.94
71795;BME280;59641;45.188;5.712;2022-12-29T13:48:17;99249.78;;;13.48;54.15
71795;BME280;59641;45.188;5.712;2022-12-29T13:50:50;99244.13;;;13.49;54.60
71795;BME280;59641;45.188;5.712;2022-12-29T13:59:06;99237.22;;;13.53;55.70
71795;BME280;59641;45.188;5.712;2022-12-29T14:01:58;99241.31;;;13.56;55.99
71795;BME280;59641;45.188;5.712;2022-12-29T14:04:27;99237.31;;;13.58;56.62
71795;BME280;59641;45.188;5.712;2022-12-29T14:07:11;99232.25;;;13.62;56.51
71795;BME280;59641;45.188;5.712;2022-12-29T14:09:42;99233.88;;;13.63;57.10
71795;BME280;59641;45.188;5.712;2022-12-29T14:12:27;99236.66;;;13.68;57.55
71795;BME280;59641;45.188;5.712;2022-12-29T14:15:05;99237.81;;;13.72;57.63
71795;BME280;59641;45.188;5.712;2022-12-29T14:17:32;99233.81;;;13.75;57.50
71795;BME280;59641;45.188;5.712;2022-12-29T14:19:58;99224.69;;;13.76;56.76
71795;BME280;59641;45.188;5.712;2022-12-29T14:22:25;99237.91;;;13.77;56.10
71795;BME280;59641;45.188;5.712;2022-12-29T14:24:50;99252.19;;;13.78;56.32
71795;BME280;59641;45.188;5.712;2022-12-29T14:29:42;99235.78;;;13.79;55.68
71795;BME280;59641;45.188;5.712;2022-12-29T14:34:50;99250.66;;;13.82;55.63
71795;BME280;59641;45.188;5.712;2022-12-29T14:39:47;99240.69;;;13.82;55.35
71795;BME280;59641;45.188;5.712;2022-12-29T14:42:15;99233.44;;;13.83;55.97
71795;BME280;59641;45.188;5.712;2022-12-29T14:45:33;99236.94;;;13.83;56.68
71795;BME280;59641;45.188;5.712;2022-12-29T14:47:40;99236.69;;;13.85;57.43
71795;BME280;59641;45.188;5.712;2022-12-29T14:57:46;99247.53;;;13.90;58.20
71795;BME280;59641;45.188;5.712;2022-12-29T15:00:22;99247.09;;;13.93;58.50
71795;BME280;59641;45.188;5.712;2022-12-29T15:02:55;99243.06;;;13.96;58.03
71795;BME280;59641;45.188;5.712;2022-12-29T15:05:32;99248.47;;;13.96;57.93
71795;BME280;59641;45.188;5.712;2022-12-29T15:08:00;99242.25;;;13.95;58.37
71795;BME280;59641;45.188;5.712;2022-12-29T15:10:33;99254.66;;;13.96;58.63
71795;BME280;59641;45.188;5.712;2022-12-29T15:13:04;99262.75;;;13.96;59.14
71795;BME280;59641;45.188;5.712;2022-12-29T15:15:36;99265.81;;;14.00;58.50
71795;BME280;59641;45.188;5.712;2022-12-29T15:18:18;99245.03;;;14.00;58.74
71795;BME280;59641;45.188;5.712;2022-12-29T15:20:50;99240.69;;;13.99;59.25
71795;BME280;59641;45.188;5.712;2022-12-29T15:23:16;99255.81;;;14.00;59.26
71795;BME280;59641;45.188;5.712;2022-12-29T15:25:52;99256.16;;;14.04;58.98
71795;BME280;59641;45.188;5.712;2022-12-29T15:28:20;99260.50;;;14.05;59.81
71795;BME280;59641;45.188;5.712;2022-12-29T15:31:02;99258.09;;;14.09;59.89
71795;BME280;59641;45.188;5.712;2022-12-29T15:33:28;99251.66;;;14.10;59.75